Weather at Billy Bishop Toronto City Centre Airport

Public forecast

Using degrees Celsius for public forecast. Weather courtesy of forecast.io.

Current aviation weather report (METAR) for Billy Bishop Toronto City Centre Airport

2024/06/19 07:00 (retrieved 18 minutes ago)

CYTZ 190700Z AUTO 31006KT 210V330 9SM FEW180 22/19 A3017 RMK SLP219 DENSITY ALT 800FT

Closest aviation forecast (TAF) to Billy Bishop Toronto City Centre Airport

Closest forecast is Toronto Lester B. Pearson International Airport, 10.6 nm (19.7 km) WNW.

2024/06/19 06:42 (retrieved 36 minutes ago)

TAF CYYZ 190540Z 1906/2012 18005KT P6SM SCT120 BKN240 BECMG 1910/1912 20008KT FM192000 18010KT P6SM SCT060 BKN220 TEMPO 1920/2003 P6SM -SHRA VCTS BKN060CB FM200300 18005KT P6SM BKN060 OVC180 PROB30 2003/2006 VRB15G25KT 2SM +TSRA BR BKN040 OVC060CB FM200800 32008KT P6SM BKN040 OVC160 BECMG 2010/2012 36008KT RMK NXT FCST BY 190900Z